createdAt,value
2018-04-07T00:02:14.566Z,50.63
2018-04-07T00:04:42.192Z,50.83
2018-04-07T00:07:09.890Z,51.24
2018-04-07T00:09:37.692Z,51.10
2018-04-07T00:12:05.347Z,51.27
2018-04-07T00:14:32.959Z,50.89
2018-04-07T00:17:00.569Z,51.10
2018-04-07T00:19:28.214Z,51.38
2018-04-07T00:21:55.828Z,51.53
2018-04-07T00:24:23.467Z,51.58
2018-04-07T00:26:51.056Z,51.60
2018-04-07T00:29:18.678Z,51.96
2018-04-07T00:31:46.276Z,52.00
2018-04-07T00:34:13.926Z,52.09
2018-04-07T00:36:41.523Z,52.74
2018-04-07T00:39:09.416Z,52.82
2018-04-07T00:41:37.089Z,52.50
2018-04-07T00:44:04.740Z,52.75
2018-04-07T00:46:32.363Z,52.81
2018-04-07T00:49:00.006Z,52.70
2018-04-07T00:51:27.604Z,52.59
2018-04-07T00:53:55.263Z,52.76
2018-04-07T00:56:22.861Z,52.52
2018-04-07T00:58:50.498Z,52.77
2018-04-07T01:01:18.106Z,52.96
2018-04-07T01:03:45.793Z,52.64
2018-04-07T01:06:13.455Z,52.88
2018-04-07T01:08:41.049Z,53.17
2018-04-07T01:11:08.687Z,52.99
2018-04-07T01:13:36.283Z,53.22
2018-04-07T01:16:03.918Z,53.27
2018-04-07T01:18:31.507Z,53.48
2018-04-07T01:20:59.159Z,53.50
2018-04-07T01:23:26.746Z,53.22
2018-04-07T01:25:54.381Z,53.49
2018-04-07T01:28:22.016Z,53.44
2018-04-07T01:30:49.642Z,53.05
2018-04-07T01:33:17.237Z,53.04
2018-04-07T01:35:44.861Z,53.28
2018-04-07T01:38:12.490Z,53.63
2018-04-07T01:40:40.193Z,53.67
2018-04-07T01:43:07.796Z,53.66
2018-04-07T01:45:35.446Z,53.58
2018-04-07T01:48:03.114Z,53.85
2018-04-07T01:50:30.739Z,54.01
2018-04-07T01:52:58.352Z,54.37
2018-04-07T01:55:25.981Z,54.77
2018-04-07T01:57:53.589Z,54.95
2018-04-07T02:00:21.186Z,55.30
2018-04-07T02:02:48.814Z,55.28
2018-04-07T02:05:16.410Z,55.16
2018-04-07T02:07:44.033Z,55.20
2018-04-07T02:10:11.626Z,55.15
2018-04-07T02:12:39.337Z,55.39
2018-04-07T02:15:06.950Z,55.22
2018-04-07T02:17:34.633Z,55.56
2018-04-07T02:20:02.239Z,55.48
2018-04-07T02:22:29.897Z,55.69
2018-04-07T02:24:57.482Z,55.79
2018-04-07T02:27:25.144Z,55.63
2018-04-07T02:29:52.746Z,55.44
2018-04-07T02:32:20.377Z,55.66
2018-04-07T02:34:48.004Z,55.49
2018-04-07T02:37:15.626Z,55.66
2018-04-07T02:39:43.236Z,55.43
2018-04-07T02:42:10.870Z,55.57
2018-04-07T02:44:38.511Z,55.40
2018-04-07T02:47:06.235Z,55.34
2018-04-07T02:49:33.841Z,55.50
2018-04-07T02:52:01.438Z,55.56
2018-04-07T02:54:29.170Z,55.70
2018-04-07T02:56:56.806Z,55.54
2018-04-07T02:59:24.546Z,55.82
2018-04-07T03:01:52.205Z,55.75
2018-04-07T03:04:19.860Z,55.46
2018-04-07T03:06:47.527Z,55.73
2018-04-07T03:09:15.161Z,55.50
2018-04-07T03:11:42.758Z,55.91
2018-04-07T03:14:10.395Z,56.01
2018-04-07T03:16:37.983Z,56.54
2018-04-07T03:19:05.627Z,56.29
2018-04-07T03:21:33.229Z,56.43
2018-04-07T03:24:00.970Z,56.50
2018-04-07T03:26:28.595Z,56.55
2018-04-07T03:28:56.306Z,56.76
2018-04-07T03:31:23.891Z,57.06
2018-04-07T03:33:51.579Z,56.66
2018-04-07T03:36:19.183Z,57.21
2018-04-07T03:38:46.783Z,57.19
2018-04-07T03:41:14.439Z,57.33
2018-04-07T03:43:42.032Z,57.30
2018-04-07T03:46:09.694Z,57.43
2018-04-07T03:48:37.287Z,57.77
2018-04-07T03:51:05.302Z,57.79
2018-04-07T03:53:32.888Z,57.76
2018-04-07T03:56:00.562Z,57.73
2018-04-07T03:58:28.175Z,57.98
2018-04-07T04:00:55.803Z,58.04
2018-04-07T04:03:23.524Z,57.96
2018-04-07T04:05:51.222Z,58.25
2018-04-07T04:08:18.990Z,58.28
2018-04-07T04:10:46.630Z,58.50
2018-04-07T04:13:14.349Z,58.36
2018-04-07T04:15:41.979Z,58.71
2018-04-07T04:18:09.575Z,58.72
2018-04-07T04:20:37.235Z,58.73
2018-04-07T04:23:04.852Z,58.92
2018-04-07T04:25:32.470Z,59.14
2018-04-07T04:28:00.092Z,58.93
2018-04-07T04:30:27.708Z,59.25
2018-04-07T04:32:55.329Z,59.42
2018-04-07T04:35:22.916Z,59.65
2018-04-07T04:37:50.563Z,59.66
2018-04-07T04:40:18.161Z,59.52
2018-04-07T04:42:45.818Z,59.51
2018-04-07T04:45:13.411Z,59.58
2018-04-07T04:47:41.051Z,59.48
2018-04-07T04:50:08.650Z,59.61
2018-04-07T04:52:36.278Z,59.77
2018-04-07T04:55:03.907Z,59.60
2018-04-07T04:57:31.489Z,59.88
2018-04-07T04:59:59.070Z,60.15
2018-04-07T05:02:26.706Z,59.96
2018-04-07T05:04:54.305Z,60.18
2018-04-07T05:07:21.959Z,60.29
2018-04-07T05:09:49.559Z,60.52
2018-04-07T05:12:17.291Z,60.32
2018-04-07T05:14:44.898Z,60.41
2018-04-07T05:17:12.550Z,60.21
2018-04-07T05:19:40.150Z,60.55
2018-04-07T05:22:07.783Z,60.47
2018-04-07T05:24:35.405Z,60.31
2018-04-07T05:27:03.082Z,60.34
2018-04-07T05:29:30.756Z,60.51
2018-04-07T05:31:58.345Z,60.36
2018-04-07T05:34:25.967Z,60.60
2018-04-07T05:36:53.560Z,60.28
2018-04-07T05:39:21.184Z,60.33
2018-04-07T05:41:48.787Z,60.45
2018-04-07T05:44:16.508Z,60.39
2018-04-07T05:46:44.101Z,60.04
2018-04-07T05:49:11.794Z,60.00
2018-04-07T05:51:39.389Z,59.88
2018-04-07T05:54:07.013Z,59.87
2018-04-07T05:56:34.614Z,59.50
2018-04-07T05:59:02.247Z,59.43
2018-04-07T06:01:29.830Z,59.53
2018-04-07T06:03:57.454Z,59.43
2018-04-07T06:06:25.054Z,59.88
2018-04-07T06:08:52.688Z,59.29
2018-04-07T06:11:20.282Z,58.97
2018-04-07T06:13:48.042Z,59.19
2018-04-07T06:16:15.638Z,58.82
2018-04-07T06:18:43.321Z,58.57
2018-04-07T06:21:10.923Z,58.22
2018-04-07T06:23:38.549Z,58.29
2018-04-07T06:26:06.171Z,58.37
2018-04-07T06:28:33.762Z,58.08
2018-04-07T06:31:01.396Z,58.78
2018-04-07T06:33:28.982Z,58.16
2018-04-07T06:35:56.621Z,58.20
2018-04-07T06:38:24.231Z,57.96
2018-04-07T06:40:51.911Z,57.77
2018-04-07T06:43:19.518Z,58.08
2018-04-07T06:45:47.204Z,57.66
2018-04-07T06:48:14.793Z,58.16
2018-04-07T06:50:42.438Z,57.01
2018-04-07T06:53:10.035Z,56.94
2018-04-07T06:55:37.814Z,57.11
2018-04-07T06:58:05.406Z,57.00
2018-04-07T07:00:33.095Z,56.48
2018-04-07T07:03:00.664Z,56.43
2018-04-07T07:05:28.316Z,56.61
2018-04-07T07:07:55.930Z,56.59
2018-04-07T07:10:23.587Z,55.60
2018-04-07T07:12:51.169Z,55.81
2018-04-07T07:15:18.757Z,56.28
2018-04-07T07:17:46.392Z,55.66
2018-04-07T07:20:14.082Z,55.32
2018-04-07T07:22:41.737Z,55.50
2018-04-07T07:25:09.336Z,55.03
2018-04-07T07:27:36.964Z,54.77
2018-04-07T07:30:04.548Z,55.03
2018-04-07T07:32:32.181Z,55.25
2018-04-07T07:34:59.766Z,54.72
2018-04-07T07:37:27.440Z,55.19
2018-04-07T07:39:55.039Z,53.98
2018-04-07T07:42:22.666Z,54.45
2018-04-07T07:44:50.314Z,54.64
2018-04-07T07:47:17.947Z,53.75
2018-04-07T07:49:45.559Z,54.26
2018-04-07T07:52:13.188Z,54.05
2018-04-07T07:54:40.795Z,53.82
2018-04-07T07:57:08.426Z,53.58
2018-04-07T07:59:36.070Z,53.68
2018-04-07T08:02:03.873Z,53.54
2018-04-07T08:04:31.492Z,52.85
2018-04-07T08:06:59.102Z,52.78
2018-04-07T08:09:26.710Z,52.46
2018-04-07T08:11:54.322Z,52.44
2018-04-07T08:14:22.025Z,52.54
2018-04-07T08:16:49.621Z,51.55
2018-04-07T08:19:17.247Z,51.68
2018-04-07T08:21:44.850Z,52.16
2018-04-07T08:24:12.475Z,50.79
2018-04-07T08:26:40.092Z,50.49
2018-04-07T08:29:07.740Z,50.75
2018-04-07T08:31:35.351Z,50.21
2018-04-07T08:34:02.974Z,50.66
2018-04-07T08:36:30.582Z,50.30
2018-04-07T08:38:58.259Z,50.33
2018-04-07T08:41:25.859Z,49.10
2018-04-07T08:43:53.488Z,49.07
2018-04-07T08:46:21.113Z,49.23
2018-04-07T08:48:48.812Z,48.39
2018-04-07T08:51:16.584Z,48.38
2018-04-07T08:53:44.238Z,47.84
2018-04-07T08:56:11.883Z,47.37
2018-04-07T08:58:39.478Z,47.83
2018-04-07T09:01:07.369Z,46.94
2018-04-07T09:03:35.013Z,47.70
2018-04-07T09:06:02.666Z,46.87
2018-04-07T09:08:30.313Z,46.96
2018-04-07T09:10:57.942Z,47.63
2018-04-07T09:13:25.550Z,47.12
2018-04-07T09:15:53.257Z,46.93
2018-04-07T09:18:20.862Z,47.05
2018-04-07T09:20:48.558Z,47.20
2018-04-07T09:23:16.235Z,46.34
2018-04-07T09:25:43.907Z,45.45
2018-04-07T09:28:11.501Z,45.64
2018-04-07T09:30:39.235Z,44.06
2018-04-07T09:33:06.905Z,45.11
2018-04-07T09:35:34.614Z,44.37
2018-04-07T09:38:02.379Z,45.14
2018-04-07T09:40:30.006Z,44.54
2018-04-07T09:42:57.762Z,43.46
2018-04-07T09:45:25.382Z,43.55
2018-04-07T09:47:53.060Z,43.18
2018-04-07T09:50:20.685Z,42.88
2018-04-07T09:52:48.338Z,43.07
2018-04-07T09:55:15.979Z,42.66
2018-04-07T09:57:43.626Z,41.85
2018-04-07T10:00:11.239Z,42.08
2018-04-07T10:02:38.927Z,42.49
2018-04-07T10:05:06.600Z,42.70
2018-04-07T10:07:34.270Z,41.89
2018-04-07T10:10:01.895Z,41.14
2018-04-07T10:12:29.588Z,41.89
2018-04-07T10:14:57.218Z,40.25
2018-04-07T10:17:24.928Z,40.63
2018-04-07T10:19:52.564Z,41.58
2018-04-07T10:22:20.491Z,40.34
2018-04-07T10:24:48.107Z,40.47
2018-04-07T10:27:15.841Z,39.82
2018-04-07T10:29:43.580Z,39.34
2018-04-07T10:32:11.272Z,39.10
2018-04-07T10:34:39.093Z,39.14
2018-04-07T10:37:06.810Z,39.05
2018-04-07T10:39:34.452Z,39.58
2018-04-07T10:42:02.100Z,38.44
2018-04-07T10:44:29.767Z,38.80
2018-04-07T10:46:57.504Z,39.67
2018-04-07T10:49:25.319Z,38.79
2018-04-07T10:51:52.946Z,38.34
2018-04-07T10:54:20.671Z,38.01
2018-04-07T10:56:48.278Z,38.83
2018-04-07T10:59:15.952Z,37.99
2018-04-07T11:01:43.566Z,36.96
2018-04-07T11:04:11.334Z,37.02
2018-04-07T11:06:38.946Z,37.09
2018-04-07T11:09:06.650Z,36.70
2018-04-07T11:11:34.343Z,36.04
2018-04-07T11:14:02.056Z,36.55
2018-04-07T11:16:29.738Z,36.99
2018-04-07T11:18:57.373Z,35.65
2018-04-07T11:21:25.213Z,35.40
2018-04-07T11:23:52.903Z,35.28
2018-04-07T11:26:20.551Z,34.97
2018-04-07T11:28:48.166Z,35.85
2018-04-07T11:31:15.831Z,34.64
2018-04-07T11:33:43.476Z,35.25
2018-04-07T11:36:11.215Z,35.02
2018-04-07T11:38:38.915Z,34.22
2018-04-07T11:41:06.569Z,34.61
2018-04-07T11:43:34.191Z,34.67
2018-04-07T11:46:01.883Z,33.68
2018-04-07T11:48:29.509Z,34.23
2018-04-07T11:50:57.153Z,35.25
2018-04-07T11:53:24.779Z,34.19
2018-04-07T11:55:52.400Z,33.47
2018-04-07T11:58:20.031Z,33.82
2018-04-07T12:00:47.722Z,34.02
2018-04-07T12:03:15.418Z,34.31
2018-04-07T12:05:43.008Z,33.25
2018-04-07T12:08:10.675Z,32.77
2018-04-07T12:10:38.263Z,33.27
2018-04-07T12:13:05.923Z,31.67
2018-04-07T12:15:33.577Z,32.96
2018-04-07T12:18:01.216Z,31.87
2018-04-07T12:20:28.839Z,31.94
2018-04-07T12:22:56.486Z,32.60
2018-04-07T12:25:24.085Z,33.24
2018-04-07T12:27:51.746Z,32.57
2018-04-07T12:30:19.358Z,31.28
2018-04-07T12:32:47.000Z,31.11
2018-04-07T12:35:14.603Z,31.63
2018-04-07T12:37:42.239Z,31.50
2018-04-07T12:40:09.822Z,30.78
2018-04-07T12:42:37.474Z,30.87
2018-04-07T12:45:05.135Z,30.77
2018-04-07T12:47:32.722Z,30.72
2018-04-07T12:50:00.371Z,29.91
2018-04-07T12:52:28.022Z,30.08
2018-04-07T12:54:55.647Z,30.67
2018-04-07T12:57:23.264Z,29.67
2018-04-07T12:59:50.924Z,29.95
2018-04-07T13:02:18.522Z,30.61
2018-04-07T13:04:46.173Z,30.38
2018-04-07T13:07:13.883Z,29.88
2018-04-07T13:09:41.626Z,29.26
2018-04-07T13:12:09.210Z,29.94
2018-04-07T13:14:36.872Z,30.16
2018-04-07T13:17:04.468Z,29.22
2018-04-07T13:19:32.099Z,29.28
2018-04-07T13:21:59.762Z,29.20
2018-04-07T13:24:27.407Z,28.83
2018-04-07T13:26:55.030Z,29.78
2018-04-07T13:29:22.696Z,29.61
2018-04-07T13:31:50.290Z,29.31
2018-04-07T13:34:18.051Z,28.57
2018-04-07T13:36:45.644Z,28.66
2018-04-07T13:39:13.279Z,28.23
2018-04-07T13:41:40.874Z,28.08
2018-04-07T13:44:08.527Z,27.39
2018-04-07T13:46:36.078Z,27.76
2018-04-07T13:49:03.686Z,28.74
2018-04-07T13:51:31.377Z,28.74
2018-04-07T13:53:58.972Z,27.97
2018-04-07T13:56:26.687Z,28.06
2018-04-07T13:58:54.346Z,27.70
2018-04-07T14:01:21.988Z,28.29
2018-04-07T14:03:49.674Z,28.54
2018-04-07T14:06:17.437Z,27.86
2018-04-07T14:08:45.027Z,27.86
2018-04-07T14:11:12.667Z,27.83
2018-04-07T14:13:40.252Z,28.22
2018-04-07T14:16:07.895Z,28.60
2018-04-07T14:18:35.496Z,27.64
2018-04-07T14:21:03.144Z,27.82
2018-04-07T14:23:30.764Z,27.51
2018-04-07T14:25:58.351Z,27.47
2018-04-07T14:28:25.991Z,28.10
2018-04-07T14:30:53.583Z,27.31
2018-04-07T14:33:21.255Z,27.38
2018-04-07T14:35:48.887Z,27.45
2018-04-07T14:38:16.535Z,27.05
2018-04-07T14:40:44.156Z,27.05
2018-04-07T14:43:11.778Z,26.83
2018-04-07T14:45:39.394Z,26.68
2018-04-07T14:48:07.026Z,26.83
2018-04-07T14:50:34.642Z,26.30
2018-04-07T14:53:02.309Z,27.57
2018-04-07T14:55:29.930Z,26.83
2018-04-07T14:57:57.570Z,26.14
2018-04-07T15:00:25.165Z,26.67
2018-04-07T15:02:52.784Z,26.86
2018-04-07T15:05:20.415Z,26.98
2018-04-07T15:07:48.069Z,27.01
2018-04-07T15:10:15.659Z,27.02
2018-04-07T15:12:43.311Z,27.22
2018-04-07T15:15:10.937Z,27.26
2018-04-07T15:17:38.533Z,27.27
2018-04-07T15:20:06.179Z,27.13
2018-04-07T15:22:33.774Z,26.90
2018-04-07T15:25:01.481Z,26.90
2018-04-07T15:27:29.098Z,27.27
2018-04-07T15:29:56.726Z,26.72
2018-04-07T15:32:24.328Z,26.90
2018-04-07T15:34:52.062Z,27.13
2018-04-07T15:37:19.690Z,26.87
2018-04-07T15:39:47.433Z,27.24
2018-04-07T15:42:15.034Z,26.59
2018-04-07T15:44:42.676Z,26.64
2018-04-07T15:47:10.294Z,26.71
2018-04-07T15:49:37.944Z,27.19
2018-04-07T15:52:05.697Z,26.27
2018-04-07T15:54:33.294Z,26.19
2018-04-07T15:57:00.929Z,26.24
2018-04-07T15:59:28.528Z,26.28
2018-04-07T16:01:56.214Z,26.57
2018-04-07T16:04:23.822Z,26.24
2018-04-07T16:06:51.486Z,26.19
2018-04-07T16:09:19.077Z,26.26
2018-04-07T16:11:46.715Z,25.77
2018-04-07T16:14:14.312Z,26.19
2018-04-07T16:16:41.958Z,26.83
2018-04-07T16:19:09.557Z,26.90
2018-04-07T16:21:37.190Z,26.41
2018-04-07T16:24:04.873Z,26.98
2018-04-07T16:26:32.531Z,26.72
2018-04-07T16:29:00.153Z,26.58
2018-04-07T16:31:27.735Z,26.75
2018-04-07T16:33:55.401Z,26.98
2018-04-07T16:36:23.064Z,27.48
2018-04-07T16:38:50.654Z,27.52
2018-04-07T16:41:18.297Z,27.62
2018-04-07T16:43:45.906Z,27.72
2018-04-07T16:46:13.628Z,28.11
2018-04-07T16:48:41.228Z,28.54
2018-04-07T16:51:08.858Z,28.23
2018-04-07T16:53:36.456Z,28.16
2018-04-07T16:56:04.048Z,28.81
2018-04-07T16:58:31.818Z,29.19
2018-04-07T17:00:59.453Z,29.38
2018-04-07T17:03:27.083Z,29.64
2018-04-07T17:05:54.690Z,29.95
2018-04-07T17:08:22.317Z,30.05
2018-04-07T17:10:49.956Z,30.06
2018-04-07T17:13:17.595Z,30.09
2018-04-07T17:15:45.191Z,30.40
2018-04-07T17:18:12.871Z,30.73
2018-04-07T17:20:40.505Z,30.85
2018-04-07T17:23:08.135Z,30.30
2018-04-07T17:25:35.788Z,30.95
2018-04-07T17:28:03.419Z,31.04
2018-04-07T17:30:31.057Z,31.48
2018-04-07T17:32:58.663Z,31.70
2018-04-07T17:35:26.308Z,32.18
2018-04-07T17:37:53.965Z,32.46
2018-04-07T17:40:21.599Z,32.74
2018-04-07T17:42:49.207Z,33.14
2018-04-07T17:45:18.478Z,33.37
2018-04-07T17:47:46.069Z,33.72
2018-04-07T17:50:13.698Z,33.67
2018-04-07T17:52:41.300Z,34.20
2018-04-07T17:55:08.940Z,34.18
2018-04-07T17:57:36.567Z,34.40
2018-04-07T18:00:04.192Z,34.39
2018-04-07T18:02:31.825Z,34.43
2018-04-07T18:04:59.486Z,34.24
2018-04-07T18:07:27.096Z,35.40
2018-04-07T18:09:54.740Z,34.96
2018-04-07T18:12:22.424Z,34.73
2018-04-07T18:14:50.056Z,35.25
2018-04-07T18:17:17.739Z,35.64
2018-04-07T18:19:45.410Z,35.19
2018-04-07T18:22:13.019Z,35.48
2018-04-07T18:24:40.702Z,35.95
2018-04-07T18:27:08.409Z,36.23
2018-04-07T18:29:36.070Z,36.45
2018-04-07T18:32:03.734Z,36.62
2018-04-07T18:34:31.331Z,37.24
2018-04-07T18:36:58.989Z,36.82
2018-04-07T18:39:26.618Z,37.31
2018-04-07T18:41:54.279Z,37.12
2018-04-07T18:44:21.888Z,37.14
2018-04-07T18:46:49.529Z,37.71
2018-04-07T18:49:17.166Z,37.52
2018-04-07T18:51:44.807Z,37.84
2018-04-07T18:54:12.508Z,38.04
2018-04-07T18:56:40.181Z,38.29
2018-04-07T18:59:07.776Z,38.48
2018-04-07T19:01:35.447Z,38.30
2018-04-07T19:04:03.075Z,38.54
2018-04-07T19:06:30.820Z,38.68
2018-04-07T19:08:58.435Z,38.82
2018-04-07T19:11:26.050Z,38.84
2018-04-07T19:13:53.683Z,38.95
2018-04-07T19:16:21.290Z,40.25
2018-04-07T19:18:48.968Z,40.29
2018-04-07T19:21:16.606Z,39.22
2018-04-07T19:23:44.243Z,39.46
2018-04-07T20:32:38.786Z,44.89
2018-04-07T20:35:06.468Z,43.85
2018-04-07T20:37:34.074Z,42.79
2018-04-07T20:40:01.727Z,42.73
2018-04-07T20:42:29.443Z,43.22
2018-04-07T20:44:57.062Z,44.31
2018-04-07T20:47:24.731Z,44.32
2018-04-07T20:49:52.377Z,42.57
2018-04-07T20:52:20.056Z,43.10
2018-04-07T20:54:47.699Z,43.70
2018-04-07T20:57:15.316Z,44.15
2018-04-07T20:59:42.921Z,44.42
2018-04-07T21:02:10.570Z,43.82
2018-04-07T21:04:38.147Z,43.60
2018-04-07T21:07:05.810Z,44.96
2018-04-07T21:09:33.411Z,44.88
2018-04-07T21:12:01.091Z,45.18
2018-04-07T21:14:28.744Z,44.93
2018-04-07T21:16:56.385Z,44.56
2018-04-07T21:19:24.000Z,44.73
2018-04-07T21:21:51.704Z,45.00
2018-04-07T21:24:19.342Z,44.69
2018-04-07T21:26:46.990Z,44.65
2018-04-07T21:29:14.737Z,44.78
2018-04-07T21:31:42.340Z,44.80
2018-04-07T21:34:09.993Z,44.71
2018-04-07T21:36:37.596Z,44.86
2018-04-07T21:39:06.007Z,44.90
2018-04-07T21:41:33.736Z,45.02
2018-04-07T21:44:01.378Z,45.07
2018-04-07T21:46:28.997Z,45.29
2018-04-07T21:48:56.633Z,45.27
2018-04-07T21:51:24.240Z,45.38
2018-04-07T21:53:51.875Z,45.37
2018-04-07T21:56:19.485Z,45.61
2018-04-07T21:58:47.238Z,45.79
2018-04-07T22:01:14.838Z,46.74
2018-04-07T22:03:42.595Z,46.55
2018-04-07T22:06:10.210Z,46.68
2018-04-07T22:08:37.895Z,47.75
2018-04-07T22:11:05.923Z,46.58
2018-04-07T22:13:33.506Z,47.74
2018-04-07T22:16:01.134Z,48.53
2018-04-07T22:18:28.750Z,47.19
2018-04-07T22:20:56.363Z,46.60
2018-04-07T22:23:23.951Z,46.45
2018-04-07T22:25:51.577Z,45.44
2018-04-07T22:28:19.177Z,46.52
2018-04-07T22:30:46.953Z,46.11
2018-04-07T22:33:14.551Z,46.52
2018-04-07T22:35:42.170Z,46.89
2018-04-07T22:38:09.802Z,47.57
2018-04-07T22:40:37.455Z,47.07
2018-04-07T22:43:05.064Z,47.41
2018-04-07T22:45:32.705Z,48.15
2018-04-07T22:48:00.333Z,48.52
2018-04-07T22:50:28.158Z,47.98
2018-04-07T22:52:55.847Z,47.04
2018-04-07T22:55:23.488Z,46.96
2018-04-07T22:57:51.184Z,47.16
2018-04-07T23:00:21.242Z,46.91
2018-04-07T23:02:48.913Z,47.17
2018-04-07T23:05:16.525Z,47.47
2018-04-07T23:07:44.232Z,47.69
2018-04-07T23:10:11.850Z,48.16
2018-04-07T23:12:39.491Z,48.50
2018-04-07T23:15:07.080Z,48.83
2018-04-07T23:17:34.810Z,49.28
2018-04-07T23:20:02.531Z,49.73
2018-04-07T23:22:30.217Z,50.12
2018-04-07T23:24:57.837Z,49.45
2018-04-07T23:27:25.455Z,49.48
2018-04-07T23:29:53.082Z,49.32
2018-04-07T23:32:20.743Z,49.68
2018-04-07T23:34:48.372Z,49.64
2018-04-07T23:37:16.010Z,49.97
2018-04-07T23:39:43.684Z,49.81
2018-04-07T23:42:11.342Z,49.83
2018-04-07T23:44:38.977Z,49.78
2018-04-07T23:47:06.601Z,50.01
2018-04-07T23:49:34.324Z,49.67
2018-04-07T23:52:01.952Z,50.06
2018-04-07T23:54:29.608Z,50.18
2018-04-07T23:56:57.257Z,50.25
2018-04-07T23:59:24.898Z,50.37
